Time;durP1;ratioP1;P1;durP2;ratioP2;P2;SDS_P1;SDS_P2;PMS_P1;PMS_P2;Temp;Humidity;BMP_temperature;BMP_pressure;BME280_temperature;BME280_humidity;BME280_pressure;Samples;Min_cycle;Max_cycle;Signal;HPM_P1;HPM_P2
2022/10/21 00:03:57;;;;;;;2.05;1.60;;;;;;;5.85;77.94;101300.19;10448811;28;20053;-76
2022/10/21 00:08:59;;;;;;;1.75;1.65;;;;;;;5.97;77.79;101295.63;10467190;28;20059;-76
2022/10/21 00:14:02;;;;;;;2.45;1.90;;;;;;;6.15;77.27;101297.44;10468117;28;20050;-76
2022/10/21 00:19:04;;;;;;;3.15;1.90;;;;;;;6.15;76.85;101302.88;10446078;28;20048;-76
2022/10/21 00:24:07;;;;;;;2.78;2.00;;;;;;;6.18;76.75;101301.59;10454610;28;20423;-76
2022/10/21 00:29:09;;;;;;;2.38;2.10;;;;;;;6.18;76.81;101307.03;10447673;28;20045;-76
2022/10/21 00:34:11;;;;;;;2.83;1.90;;;;;;;6.12;76.60;101302.53;10474648;28;20048;-76
2022/10/21 00:39:14;;;;;;;2.78;2.13;;;;;;;6.06;76.72;101301.56;10449229;28;20041;-76
2022/10/21 00:44:16;;;;;;;2.10;1.90;;;;;;;5.97;77.99;101292.09;10468619;28;20052;-75
2022/10/21 00:49:28;;;;;;;2.28;1.90;;;;;;;6.02;78.22;101292.22;10460081;28;20053;-75
2022/10/21 00:54:30;;;;;;;2.15;1.80;;;;;;;6.12;77.22;101278.84;10465317;28;20530;-77
2022/10/21 00:59:35;;;;;;;2.50;2.10;;;;;;;6.20;77.08;101283.94;10437435;28;20502;-77
2022/10/21 01:04:38;;;;;;;4.53;2.00;;;;;;;6.22;77.30;101283.69;10475327;28;20045;-77
2022/10/21 01:09:40;;;;;;;2.33;2.13;;;;;;;6.12;76.99;101273.38;10449728;28;20068;-75
2022/10/21 01:14:59;;;;;;;3.90;2.03;;;;;;;6.18;77.73;101285.22;10468328;28;20049;-76
2022/10/21 01:20:23;;;;;;;2.72;1.88;;;;;;;6.39;76.74;101287.34;10457006;28;20038;-76
2022/10/21 01:25:36;;;;;;;2.25;1.85;;;;;;;6.17;76.50;101281.69;10453404;28;20045;-76
2022/10/21 01:30:41;;;;;;;2.47;1.95;;;;;;;6.14;76.97;101284.88;10450499;28;20040;-76
2022/10/21 01:35:53;;;;;;;2.92;2.15;;;;;;;6.12;76.79;101291.63;10467111;28;20566;-76
2022/10/21 01:41:20;;;;;;;4.00;2.22;;;;;;;5.81;77.84;101285.41;10448288;28;20049;-76
2022/10/21 01:46:28;;;;;;;2.42;2.10;;;;;;;5.69;77.82;101290.81;10479776;28;20055;-76
2022/10/21 01:51:30;;;;;;;4.65;2.40;;;;;;;5.66;78.34;101294.00;10453362;28;20029;-76
2022/10/21 01:56:33;;;;;;;3.70;2.70;;;;;;;5.57;78.27;101292.69;10443100;28;20057;-76
2022/10/21 02:01:36;;;;;;;3.78;2.50;;;;;;;5.51;79.06;101306.38;10445183;28;20492;-76
2022/10/21 02:06:39;;;;;;;4.20;2.63;;;;;;;5.56;78.82;101307.34;10432837;28;20038;-76
2022/10/21 02:11:44;;;;;;;3.45;2.90;;;;;;;5.52;78.99;101292.53;10442954;28;20049;-76
2022/10/21 02:16:47;;;;;;;4.32;2.80;;;;;;;5.57;78.83;101281.78;10449091;28;20677;-75
2022/10/21 02:21:51;;;;;;;4.20;2.47;;;;;;;5.50;78.24;101270.16;10449780;28;20044;-76
2022/10/21 02:26:54;;;;;;;3.53;2.83;;;;;;;5.62;78.91;101265.59;10459638;28;20040;-76
2022/10/21 02:32:07;;;;;;;2.95;2.60;;;;;;;5.68;76.87;101275.53;10448152;28;20045;-76
2022/10/21 02:37:24;;;;;;;2.33;2.03;;;;;;;5.72;77.26;101284.06;10465168;28;20052;-76
2022/10/21 02:42:31;;;;;;;2.70;2.38;;;;;;;5.59;77.07;101298.72;10449811;28;20393;-77
2022/10/21 02:47:35;;;;;;;4.70;2.70;;;;;;;5.65;77.62;101303.22;10455093;28;20339;-76
2022/10/21 02:52:38;;;;;;;3.20;2.38;;;;;;;5.48;77.78;101296.78;10439309;28;20071;-76
2022/10/21 02:57:40;;;;;;;2.78;2.53;;;;;;;5.68;78.26;101291.88;10439787;28;20049;-76
2022/10/21 03:02:42;;;;;;;3.47;2.35;;;;;;;5.80;77.85;101282.91;10442261;28;20049;-76
2022/10/21 03:07:44;;;;;;;4.22;2.60;;;;;;;5.66;77.73;101277.66;10448776;28;20033;-76
2022/10/21 03:12:48;;;;;;;6.25;2.60;;;;;;;5.78;78.13;101285.03;10451613;28;20048;-76
2022/10/21 03:17:50;;;;;;;2.70;2.47;;;;;;;5.80;77.77;101282.91;10450550;28;20053;-76
2022/10/21 03:22:52;;;;;;;3.00;2.60;;;;;;;5.99;76.85;101289.97;10450893;28;20057;-76
2022/10/21 03:27:55;;;;;;;2.90;2.60;;;;;;;5.90;76.14;101281.31;10450986;28;20535;-76
2022/10/21 03:32:57;;;;;;;2.85;2.65;;;;;;;5.75;76.83;101286.34;10471124;28;20128;-76
2022/10/21 03:37:59;;;;;;;3.58;2.60;;;;;;;5.74;77.34;101284.69;10474179;28;20500;-76
2022/10/21 03:43:01;;;;;;;3.53;2.83;;;;;;;5.81;76.95;101276.41;10464775;28;20052;-76
2022/10/21 03:48:03;;;;;;;3.80;2.80;;;;;;;5.67;77.71;101264.88;10456375;28;20416;-76
2022/10/21 03:53:05;;;;;;;2.58;2.35;;;;;;;5.71;76.45;101280.50;10450049;28;20045;-76
2022/10/21 03:58:08;;;;;;;3.50;2.25;;;;;;;5.81;76.99;101266.34;10464255;28;20049;-76
2022/10/21 04:03:10;;;;;;;2.33;2.00;;;;;;;5.76;76.79;101268.94;10447715;28;20562;-77
2022/10/21 04:08:12;;;;;;;4.57;3.00;;;;;;;5.88;75.99;101255.31;10468911;28;20128;-76
2022/10/21 04:13:14;;;;;;;2.88;2.08;;;;;;;5.69;76.94;101252.69;10469156;28;20041;-76
2022/10/21 04:18:16;;;;;;;3.10;2.65;;;;;;;5.64;76.91;101251.72;10447380;28;20045;-75
2022/10/21 04:23:18;;;;;;;2.97;2.50;;;;;;;5.61;76.69;101254.94;10451890;28;20056;-78
2022/10/21 04:28:20;;;;;;;3.35;2.47;;;;;;;5.62;77.19;101254.69;10438539;28;20049;-76
2022/10/21 04:33:23;;;;;;;3.47;2.70;;;;;;;5.71;76.85;101257.91;10444562;28;20056;-77
2022/10/21 04:38:26;;;;;;;3.92;2.63;;;;;;;5.74;77.37;101252.00;10458243;28;20049;-77
2022/10/21 04:43:28;;;;;;;2.80;2.17;;;;;;;5.78;77.23;101247.75;10442689;28;20045;-77
2022/10/21 04:48:30;;;;;;;3.50;2.47;;;;;;;5.74;77.07;101254.72;10449207;28;20377;-77
2022/10/21 04:53:33;;;;;;;4.45;2.40;;;;;;;5.49;76.72;101254.88;10460789;28;20041;-77
2022/10/21 04:58:35;;;;;;;4.32;3.38;;;;;;;5.55;77.47;101256.66;10469397;28;20435;-78
2022/10/21 05:03:37;;;;;;;5.72;3.13;;;;;;;5.47;77.40;101259.75;10451436;28;20034;-79
2022/10/21 05:08:40;;;;;;;4.18;3.45;;;;;;;5.46;78.20;101271.69;10424779;28;20053;-79
2022/10/21 05:13:42;;;;;;;4.03;3.10;;;;;;;5.47;78.54;101276.06;10458747;28;20049;-77
2022/10/21 05:18:44;;;;;;;3.17;2.63;;;;;;;5.60;77.80;101262.28;10467053;28;20048;-77
2022/10/21 05:23:46;;;;;;;4.03;2.65;;;;;;;5.58;78.57;101242.63;10457411;28;20072;-77
2022/10/21 05:28:49;;;;;;;3.97;3.03;;;;;;;5.71;77.48;101253.28;10446324;28;20030;-79
2022/10/21 05:33:51;;;;;;;3.42;2.92;;;;;;;5.48;77.17;101249.69;10446988;28;20041;-78
2022/10/21 05:38:53;;;;;;;3.75;3.05;;;;;;;5.44;78.75;101269.19;10446479;28;20053;-78
2022/10/21 05:43:55;;;;;;;4.95;3.20;;;;;;;5.62;78.88;101276.47;10444177;28;20059;-78
2022/10/21 05:48:57;;;;;;;5.15;3.20;;;;;;;5.41;79.26;101282.44;10445382;28;20041;-77
2022/10/21 05:54:02;;;;;;;7.03;3.85;;;;;;;5.28;79.65;101285.34;10440939;28;20231;-78
2022/10/21 05:59:04;;;;;;;5.93;3.33;;;;;;;5.37;79.30;101292.94;10445743;28;20045;-78
2022/10/21 06:04:07;;;;;;;5.93;3.38;;;;;;;5.36;79.43;101287.72;10444832;28;20488;-78
2022/10/21 06:09:09;;;;;;;5.95;3.80;;;;;;;5.59;79.25;101289.72;10443881;28;20046;-78
2022/10/21 06:14:11;;;;;;;6.35;3.72;;;;;;;5.55;78.38;101292.06;10445295;28;20053;-78
2022/10/21 06:19:13;;;;;;;5.63;4.05;;;;;;;5.39;78.96;101304.47;10443861;28;20069;-78
2022/10/21 06:24:15;;;;;;;10.15;5.10;;;;;;;5.37;78.45;101306.56;10441846;28;20053;-78
2022/10/21 06:29:18;;;;;;;10.57;4.18;;;;;;;5.39;78.94;101307.19;10445214;28;20624;-78
2022/10/21 06:34:20;;;;;;;7.75;4.85;;;;;;;5.43;79.08;101300.19;10444750;28;20472;-77
2022/10/21 06:39:22;;;;;;;8.15;3.90;;;;;;;5.48;79.17;101299.50;10443559;28;20050;-77
2022/10/21 06:44:24;;;;;;;6.38;4.07;;;;;;;5.51;78.19;101306.38;10445041;28;20136;-78
2022/10/21 06:49:27;;;;;;;6.15;3.95;;;;;;;5.47;77.99;101303.28;10444179;28;20041;-78
2022/10/21 06:54:29;;;;;;;4.97;3.30;;;;;;;5.41;78.34;101306.94;10442158;28;20033;-78
2022/10/21 06:59:31;;;;;;;3.95;2.83;;;;;;;5.27;78.78;101308.19;10429759;28;20056;-77
2022/10/21 07:04:33;;;;;;;5.82;2.83;;;;;;;5.43;78.86;101300.19;10443702;28;20037;-78
2022/10/21 07:09:36;;;;;;;6.35;2.55;;;;;;;5.54;78.48;101300.47;10444285;28;20061;-77
2022/10/21 07:14:38;;;;;;;4.45;2.60;;;;;;;5.62;78.45;101290.09;10444161;28;20246;-78
2022/10/21 07:19:40;;;;;;;4.82;3.03;;;;;;;5.83;77.60;101294.16;10443743;28;20049;-78
2022/10/21 07:24:42;;;;;;;4.55;2.85;;;;;;;6.15;77.34;101297.44;10442568;28;20504;-77
2022/10/21 07:29:44;;;;;;;5.15;2.97;;;;;;;6.34;75.53;101303.59;10444392;28;20044;-77
2022/10/21 07:34:47;;;;;;;4.72;3.05;;;;;;;6.14;75.13;101295.78;10443117;28;20411;-77
2022/10/21 07:39:49;;;;;;;6.43;3.30;;;;;;;6.44;75.06;101303.84;10442345;28;20056;-77
2022/10/21 07:44:52;;;;;;;5.72;3.17;;;;;;;7.00;74.06;101296.88;10443350;28;20048;-78
2022/10/21 07:49:54;;;;;;;4.90;3.28;;;;;;;7.21;73.32;101300.84;10443440;28;20458;-78
2022/10/21 07:54:56;;;;;;;7.93;3.10;;;;;;;7.24;72.24;101295.72;10450334;28;20064;-78
2022/10/21 07:59:58;;;;;;;6.68;3.50;;;;;;;7.12;71.99;101296.88;10447420;28;20049;-78
2022/10/21 08:05:01;;;;;;;7.15;3.30;;;;;;;6.86;72.47;101309.97;10445593;28;20407;-79
2022/10/21 08:10:04;;;;;;;4.40;3.30;;;;;;;6.70;72.34;101307.97;10450235;28;20041;-79
2022/10/21 08:15:07;;;;;;;5.00;3.67;;;;;;;6.59;73.22;101300.63;10448034;28;20041;-78
2022/10/21 08:20:09;;;;;;;4.80;3.35;;;;;;;6.65;73.28;101297.78;10451157;28;20037;-80
2022/10/21 08:25:15;;;;;;;5.65;3.00;;;;;;;6.69;72.88;101279.03;10447967;28;20041;-79
2022/10/21 08:30:17;;;;;;;3.28;2.65;;;;;;;6.61;74.06;101276.69;10438700;28;20472;-79
2022/10/21 08:35:19;;;;;;;5.13;3.40;;;;;;;6.71;73.06;101279.63;10464282;28;20045;-78
2022/10/21 08:40:22;;;;;;;5.63;3.17;;;;;;;6.69;73.26;101276.31;10448879;28;20057;-79
2022/10/21 08:45:40;;;;;;;8.68;3.47;;;;;;;6.78;73.19;101280.34;10447314;28;20052;-79
2022/10/21 08:50:46;;;;;;;6.10;3.35;;;;;;;6.76;73.18;101282.44;10449554;28;20040;-77
2022/10/21 08:55:48;;;;;;;5.10;3.20;;;;;;;6.78;73.69;101288.53;10445859;28;20037;-78
2022/10/21 09:00:54;;;;;;;5.22;3.92;;;;;;;6.87;72.76;101291.69;10446698;28;20046;-79
2022/10/21 09:06:20;;;;;;;4.30;3.22;;;;;;;6.88;72.66;101290.63;10446055;28;20050;-78
2022/10/21 09:11:49;;;;;;;4.72;2.95;;;;;;;6.85;72.61;101286.47;10407485;28;20046;-77
2022/10/21 09:17:24;;;;;;;5.85;3.20;;;;;;;6.82;72.63;101286.97;10417812;28;20052;-79
2022/10/21 09:22:32;;;;;;;5.10;4.05;;;;;;;6.88;73.13;101290.63;10446920;28;20049;-79
2022/10/21 09:27:34;;;;;;;5.90;3.55;;;;;;;6.70;72.94;101293.50;10440187;28;20523;-80
2022/10/21 09:32:38;;;;;;;6.28;4.30;;;;;;;6.75;72.86;101297.16;10425617;28;20044;-80
2022/10/21 09:37:48;;;;;;;7.07;4.10;;;;;;;6.79;73.44;101292.09;10443980;28;20037;-80
2022/10/21 09:42:55;;;;;;;6.82;4.30;;;;;;;6.95;72.70;101291.34;10413006;28;20056;-80
2022/10/21 09:48:00;;;;;;;7.30;3.83;;;;;;;6.95;72.95;101292.16;10441697;28;20040;-80
2022/10/21 09:53:11;;;;;;;8.93;4.78;;;;;;;6.95;72.87;101297.63;10445628;28;20504;-80
2022/10/21 09:58:43;;;;;;;7.75;4.05;;;;;;;6.87;72.68;101300.72;10443237;28;20148;-80
2022/10/21 10:03:50;;;;;;;7.85;4.15;;;;;;;6.91;73.02;101295.59;10446940;28;20052;-80
2022/10/21 10:09:05;;;;;;;9.50;3.97;;;;;;;6.84;73.09;101298.47;10444924;28;20033;-80
2022/10/21 10:14:23;;;;;;;9.60;4.35;;;;;;;6.68;73.42;101295.66;10428215;28;20053;-80
2022/10/21 10:19:27;;;;;;;8.30;4.05;;;;;;;6.81;73.80;101287.22;10444104;28;20056;-80
2022/10/21 10:24:31;;;;;;;12.40;4.28;;;;;;;6.94;72.94;101301.41;10445256;28;20049;-80
2022/10/21 10:29:33;;;;;;;14.35;4.65;;;;;;;7.19;73.08;101292.91;10444007;28;20045;-80
2022/10/21 10:34:39;;;;;;;8.93;4.38;;;;;;;7.24;72.79;101289.44;10443028;28;20052;-80
2022/10/21 10:39:42;;;;;;;11.30;5.05;;;;;;;7.26;72.44;101290.03;10443408;28;20041;-80
2022/10/21 10:44:44;;;;;;;21.77;5.07;;;;;;;7.16;71.84;101276.19;10442767;28;20369;-80
2022/10/21 10:49:46;;;;;;;9.13;4.10;;;;;;;7.19;72.13;101271.06;10443323;28;20052;-79
2022/10/21 10:55:10;;;;;;;7.38;3.78;;;;;;;7.27;71.86;101275.31;10445124;28;20057;-81
2022/10/21 11:00:20;;;;;;;8.55;5.00;;;;;;;7.34;71.70;101273.28;10444367;28;20037;-80
2022/10/21 11:05:26;;;;;;;14.82;4.05;;;;;;;7.37;71.36;101270.06;10443367;28;20033;-81
2022/10/21 11:10:35;;;;;;;12.57;4.38;;;;;;;7.34;71.73;101278.75;10444168;28;20080;-80
2022/10/21 11:15:38;;;;;;;10.65;4.35;;;;;;;7.32;71.92;101290.97;10443566;28;20058;-80
2022/10/21 11:20:47;;;;;;;10.13;5.50;;;;;;;7.16;71.85;101281.66;10442006;28;20044;-80
2022/10/21 11:25:54;;;;;;;13.57;6.22;;;;;;;7.24;73.05;101273.06;10444054;28;20053;-80
2022/10/21 11:31:08;;;;;;;17.30;7.13;;;;;;;7.30;72.96;101282.22;10452309;28;20551;-80
2022/10/21 11:36:39;;;;;;;12.38;5.72;;;;;;;7.24;72.93;101284.81;10450553;28;20420;-80
2022/10/21 11:41:47;;;;;;;12.63;5.95;;;;;;;7.25;72.48;101277.47;10451121;28;20050;-80
2022/10/21 11:47:04;;;;;;;13.13;6.57;;;;;;;7.40;72.71;101277.75;10450279;28;20034;-81
2022/10/21 11:52:18;;;;;;;20.52;8.32;;;;;;;7.36;72.46;101265.66;10451230;28;20065;-80
2022/10/21 11:57:33;;;;;;;16.75;6.75;;;;;;;7.28;72.76;101265.22;10432631;28;20397;-82
2022/10/21 12:02:42;;;;;;;21.23;7.95;;;;;;;7.36;72.33;101264.84;10444501;28;20033;-80
2022/10/21 12:08:00;;;;;;;14.70;6.78;;;;;;;7.34;72.74;101270.53;10449712;28;20049;-78
2022/10/21 12:13:23;;;;;;;11.80;6.93;;;;;;;7.34;72.81;101273.28;10418014;28;20053;-80
2022/10/21 12:18:27;;;;;;;12.45;5.25;;;;;;;7.17;72.78;101273.22;10448474;28;20057;-82
2022/10/21 12:23:30;;;;;;;27.77;13.15;;;;;;;7.10;72.78;101271.69;10448454;28;20049;-83
2022/10/21 12:28:50;;;;;;;18.48;8.85;;;;;;;6.94;73.45;101273.28;10448005;28;20056;-83
2022/10/21 12:33:53;;;;;;;13.98;7.00;;;;;;;6.85;73.87;101278.31;10420531;28;20683;-81
2022/10/21 12:38:57;;;;;;;9.73;3.45;;;;;;;6.92;73.60;101268.06;10449392;28;20044;-82
2022/10/21 12:44:02;;;;;;;16.30;6.93;;;;;;;7.03;73.43;101268.28;10448118;28;20152;-82
2022/10/21 12:49:31;;;;;;;15.95;6.15;;;;;;;6.98;72.82;101263.56;10448393;28;20042;-83
2022/10/21 12:54:58;;;;;;;13.45;5.75;;;;;;;7.00;73.09;101260.59;10445895;28;20050;-81
2022/10/21 13:00:30;;;;;;;8.30;5.03;;;;;;;6.91;73.72;101255.50;10445414;28;20531;-81
2022/10/21 13:05:37;;;;;;;7.57;4.80;;;;;;;6.87;73.25;101264.41;10442311;28;20048;-81
2022/10/21 13:10:39;;;;;;;5.43;3.28;;;;;;;6.86;74.17;101260.03;10447577;28;20037;-80
2022/10/21 13:15:44;;;;;;;4.70;3.38;;;;;;;6.91;74.02;101271.88;10446332;28;20053;-81
2022/10/21 13:20:47;;;;;;;6.25;3.45;;;;;;;6.85;73.74;101270.13;10447723;28;20041;-80
2022/10/21 13:26:04;;;;;;;8.23;3.20;;;;;;;6.93;73.59;101266.16;10447876;28;20523;-81
2022/10/21 13:31:06;;;;;;;4.72;3.10;;;;;;;7.02;73.93;101272.09;10445032;28;20077;-80
2022/10/21 13:36:11;;;;;;;7.70;3.28;;;;;;;6.99;74.10;101269.84;10446957;28;20052;-80
2022/10/21 13:41:26;;;;;;;2.40;1.98;;;;;;;7.02;73.94;101272.91;10445207;28;20053;-80
2022/10/21 13:46:31;;;;;;;6.70;3.00;;;;;;;6.98;73.46;101279.94;10446300;28;20037;-80
2022/10/21 13:51:44;;;;;;;6.47;3.42;;;;;;;7.01;73.20;101278.63;10445797;28;20495;-81
2022/10/21 13:56:46;;;;;;;3.95;3.13;;;;;;;6.84;73.10;101286.72;10447610;28;20057;-82
2022/10/21 14:01:54;;;;;;;4.32;3.10;;;;;;;6.71;73.56;101285.09;10447297;28;20057;-83
2022/10/21 14:06:59;;;;;;;5.55;2.67;;;;;;;6.74;73.95;101286.50;10446687;28;20048;-83
2022/10/21 14:12:05;;;;;;;4.57;3.20;;;;;;;6.72;74.01;101275.00;10443932;28;20045;-82
2022/10/21 14:17:17;;;;;;;6.50;4.25;;;;;;;6.70;74.01;101286.16;10443602;28;20045;-82
2022/10/21 14:22:22;;;;;;;4.80;3.40;;;;;;;6.58;74.41;101277.16;10444459;28;20056;-82
2022/10/21 14:27:28;;;;;;;7.68;3.40;;;;;;;6.50;74.37;101286.53;10444471;28;20053;-82
2022/10/21 14:32:30;;;;;;;8.23;3.67;;;;;;;6.39;75.66;101294.72;10440760;28;20407;-80
2022/10/21 14:38:12;;;;;;;5.40;2.95;;;;;;;6.43;75.82;101285.84;10423686;28;20049;-82
2022/10/21 14:43:18;;;;;;;5.28;3.10;;;;;;;6.43;75.71;101287.75;10468790;28;20069;-81
2022/10/21 14:48:31;;;;;;;4.90;2.90;;;;;;;6.48;75.52;101293.31;10445023;28;20049;-81
2022/10/21 14:53:41;;;;;;;4.50;1.90;;;;;;;6.49;75.17;101294.97;10444575;28;20044;-81
2022/10/21 14:58:45;;;;;;;5.28;1.95;;;;;;;6.42;74.92;101305.13;10399525;28;20041;-82
2022/10/21 15:03:58;;;;;;;1.25;0.45;;;;;;;6.28;75.90;101305.41;10438472;28;20512;-81
2022/10/21 15:09:13;;;;;;;3.72;2.42;;;;;;;6.26;76.15;101301.25;10443508;28;20535;-80
2022/10/21 15:14:34;;;;;;;5.47;3.80;;;;;;;6.26;75.61;101299.34;10413043;28;20048;-83
2022/10/21 15:19:36;;;;;;;5.13;3.75;;;;;;;6.17;76.54;101302.66;10424258;28;20053;-81
2022/10/21 15:24:38;;;;;;;9.73;4.85;;;;;;;6.24;76.20;101306.06;10442265;28;20508;-82
2022/10/21 15:29:47;;;;;;;5.95;3.70;;;;;;;6.33;76.39;101310.13;10413076;28;20046;-81
2022/10/21 15:34:50;;;;;;;7.65;3.45;;;;;;;6.43;75.56;101309.56;10381285;28;20519;-82
2022/10/21 15:39:52;;;;;;;6.13;4.15;;;;;;;6.40;76.21;101310.81;10408111;28;20057;-80
2022/10/21 15:44:55;;;;;;;7.80;3.45;;;;;;;6.25;75.18;101303.16;10443960;28;20053;-78
2022/10/21 15:49:57;;;;;;;7.32;3.72;;;;;;;6.31;76.04;101304.91;10443831;28;20534;-79
2022/10/21 15:54:59;;;;;;;7.95;4.00;;;;;;;6.40;75.17;101301.81;10443269;28;20539;-84
2022/10/21 16:00:02;;;;;;;10.27;5.53;;;;;;;6.40;75.81;101305.38;10440903;28;20515;-82
2022/10/21 16:05:07;;;;;;;6.20;3.50;;;;;;;6.29;75.56;101311.69;10442056;28;20041;-81
2022/10/21 16:10:19;;;;;;;5.28;3.50;;;;;;;6.14;75.85;101311.31;10419266;28;20049;-81
2022/10/21 16:15:21;;;;;;;7.35;4.20;;;;;;;6.13;75.32;101309.66;10449755;28;20056;-82
2022/10/21 16:20:29;;;;;;;7.70;3.58;;;;;;;6.01;76.04;101307.72;10447877;28;20041;-82
2022/10/21 16:25:32;;;;;;;5.78;3.90;;;;;;;5.93;76.48;101309.97;10448873;28;20504;-83
2022/10/21 16:30:37;;;;;;;3.65;2.95;;;;;;;5.85;77.34;101311.09;10447880;28;20573;-82
2022/10/21 16:35:39;;;;;;;6.10;4.65;;;;;;;5.90;77.36;101324.03;10447918;28;20045;-82
2022/10/21 16:40:41;;;;;;;6.82;4.55;;;;;;;5.81;77.33;101311.81;10438534;28;20504;-82
2022/10/21 16:45:43;;;;;;;7.70;3.90;;;;;;;5.64;77.44;101327.97;10448171;28;20045;-82
2022/10/21 16:50:45;;;;;;;5.35;3.85;;;;;;;5.66;78.12;101329.41;10448536;28;20064;-82
2022/10/21 16:55:48;;;;;;;4.97;3.83;;;;;;;5.57;78.47;101332.69;10442222;28;20041;-81
2022/10/21 17:00:50;;;;;;;6.88;3.38;;;;;;;5.50;78.67;101330.03;10445912;28;20557;-82
2022/10/21 17:05:52;;;;;;;6.07;3.25;;;;;;;5.64;78.41;101327.97;10440453;28;20480;-81
2022/10/21 17:10:54;;;;;;;5.53;3.20;;;;;;;5.63;78.29;101331.75;10448076;28;20053;-82
2022/10/21 17:15:57;;;;;;;4.15;3.38;;;;;;;5.55;77.70;101334.78;10446260;28;20068;-80
2022/10/21 17:20:59;;;;;;;4.18;3.28;;;;;;;5.48;77.76;101329.44;10447547;28;20041;-82
2022/10/21 17:26:01;;;;;;;3.00;2.60;;;;;;;5.39;77.98;101334.41;10445222;28;20414;-82
2022/10/21 17:31:03;;;;;;;6.22;2.80;;;;;;;5.55;78.35;101332.88;10417197;28;20038;-81
2022/10/21 17:36:06;;;;;;;6.80;4.20;;;;;;;5.57;77.90;101333.53;10432978;28;20045;-79
2022/10/21 17:41:09;;;;;;;7.25;4.47;;;;;;;5.52;78.47;101330.63;10447254;28;20037;-81
2022/10/21 17:46:19;;;;;;;6.70;4.18;;;;;;;5.49;78.54;101333.81;10447242;28;20045;-81
2022/10/21 17:51:22;;;;;;;6.85;3.83;;;;;;;5.50;78.80;101324.59;10404826;28;20054;-82
2022/10/21 17:56:50;;;;;;;4.30;3.13;;;;;;;5.67;77.71;101336.50;10421674;28;20074;-81
2022/10/21 18:01:52;;;;;;;7.95;2.92;;;;;;;5.58;77.94;101329.72;10397029;28;20041;-81
2022/10/21 18:06:54;;;;;;;4.65;2.70;;;;;;;5.72;77.90;101330.34;10447854;28;20060;-81
2022/10/21 18:11:56;;;;;;;4.93;3.47;;;;;;;5.78;77.55;101334.06;10446721;28;20041;-81
2022/10/21 18:16:59;;;;;;;7.20;3.13;;;;;;;5.65;77.31;101341.34;10445691;28;20053;-81
2022/10/21 18:22:02;;;;;;;6.75;3.60;;;;;;;5.70;77.65;101344.19;10446117;28;20064;-82
2022/10/21 18:27:05;;;;;;;5.15;3.50;;;;;;;5.57;77.08;101344.41;10447176;28;20045;-82
2022/10/21 18:32:08;;;;;;;5.95;3.78;;;;;;;5.55;77.37;101340.22;10444783;28;20047;-81
2022/10/21 18:37:10;;;;;;;4.95;3.78;;;;;;;5.49;77.55;101339.28;10445357;28;20405;-81
2022/10/21 18:42:12;;;;;;;8.05;4.20;;;;;;;5.47;78.19;101338.66;10443803;28;20567;-81
2022/10/21 18:47:16;;;;;;;10.95;5.38;;;;;;;5.48;77.60;101342.22;10428564;28;20064;-81
2022/10/21 18:52:18;;;;;;;8.25;5.03;;;;;;;5.48;77.67;101345.78;10445740;28;20053;-81
2022/10/21 18:57:26;;;;;;;5.55;3.40;;;;;;;5.56;77.95;101344.66;10443238;28;20044;-82
2022/10/21 19:02:28;;;;;;;7.28;3.65;;;;;;;5.57;77.65;101344.41;10447478;28;20037;-79
2022/10/21 19:07:30;;;;;;;5.82;4.10;;;;;;;5.59;77.85;101345.00;10451456;28;20049;-80
2022/10/21 19:12:32;;;;;;;6.05;3.70;;;;;;;5.60;77.76;101335.78;10444148;28;20475;-80
2022/10/21 19:17:35;;;;;;;5.53;2.80;;;;;;;5.54;77.91;101341.28;10442965;28;20056;-79
2022/10/21 19:22:37;;;;;;;4.18;3.13;;;;;;;5.57;77.41;101344.41;10444726;28;20056;-80
2022/10/21 19:27:39;;;;;;;5.28;3.28;;;;;;;5.62;78.10;101341.00;10449774;28;20034;-81
2022/10/21 19:32:42;;;;;;;5.05;3.88;;;;;;;5.80;78.30;101343.66;10442488;28;20057;-81
2022/10/21 19:37:44;;;;;;;4.53;3.58;;;;;;;6.02;76.85;101347.53;10435869;28;20042;-80
2022/10/21 19:42:46;;;;;;;5.70;3.60;;;;;;;6.01;77.51;101353.22;10450342;28;20428;-79
2022/10/21 19:47:49;;;;;;;5.40;3.33;;;;;;;6.12;77.07;101355.13;10441879;28;20041;-81
2022/10/21 19:52:51;;;;;;;4.65;3.05;;;;;;;6.02;76.69;101357.59;10458245;28;20068;-78
2022/10/21 19:57:53;;;;;;;5.45;2.97;;;;;;;5.88;76.73;101356.09;10449158;28;20045;-79
2022/10/21 20:03:20;;;;;;;6.53;3.40;;;;;;;5.83;76.39;101358.69;10449485;28;20060;-80
2022/10/21 20:08:23;;;;;;;5.93;3.17;;;;;;;5.81;77.07;101355.38;10449891;28;20057;-80
2022/10/21 20:13:26;;;;;;;9.00;3.78;;;;;;;5.85;76.46;101356.56;10450244;28;20038;-78
2022/10/21 20:18:28;;;;;;;4.38;2.90;;;;;;;5.83;76.69;101354.06;10449349;28;20065;-80
2022/10/21 20:23:36;;;;;;;4.53;3.08;;;;;;;5.86;76.60;101361.78;10446983;28;20403;-79
2022/10/21 20:28:38;;;;;;;4.97;3.35;;;;;;;6.11;76.18;101361.66;10449702;28;20419;-80
2022/10/21 20:33:43;;;;;;;3.67;2.60;;;;;;;6.12;76.10;101363.31;10450806;28;20488;-79
2022/10/21 20:38:47;;;;;;;3.90;3.22;;;;;;;6.22;75.34;101354.53;10448832;28;20155;-79
2022/10/21 20:43:50;;;;;;;5.53;3.35;;;;;;;6.33;75.50;101360.03;10430604;28;20042;-78
2022/10/21 20:48:53;;;;;;;7.25;3.60;;;;;;;6.20;74.89;101357.50;10448596;28;20033;-78
2022/10/21 20:53:58;;;;;;;4.40;3.38;;;;;;;6.24;75.04;101349.69;10449129;28;20049;-82
2022/10/21 20:59:01;;;;;;;6.13;3.45;;;;;;;6.15;75.67;101349.22;10445692;28;20052;-80
2022/10/21 21:04:07;;;;;;;7.00;4.10;;;;;;;6.14;75.72;101355.72;10443760;28;20045;-78
2022/10/21 21:09:10;;;;;;;24.55;10.05;;;;;;;6.07;75.68;101360.44;10449104;28;20045;-78
2022/10/21 21:14:12;;;;;;;7.38;4.35;;;;;;;5.94;76.08;101355.22;10448219;28;20051;-80
2022/10/21 21:19:15;;;;;;;6.32;4.20;;;;;;;5.81;77.41;101355.38;10445674;28;20064;-79
2022/10/21 21:24:17;;;;;;;8.95;5.07;;;;;;;5.67;77.79;101347.38;10445824;28;20046;-80
2022/10/21 21:29:19;;;;;;;5.93;3.72;;;;;;;5.72;78.13;101336.63;10446015;28;20045;-80
2022/10/21 21:34:23;;;;;;;12.98;6.45;;;;;;;5.73;77.69;101341.03;10443885;28;20045;-80
2022/10/21 21:39:25;;;;;;;8.52;4.90;;;;;;;5.71;78.42;101336.84;10429519;28;20052;-78
2022/10/21 21:44:27;;;;;;;7.75;5.20;;;;;;;5.62;79.03;101333.66;10447042;28;20045;-80
2022/10/21 21:49:29;;;;;;;6.13;4.10;;;;;;;5.58;79.42;101335.19;10447683;28;20052;-80
2022/10/21 21:54:31;;;;;;;8.15;5.40;;;;;;;5.53;79.15;101332.28;10461796;28;20527;-80
2022/10/21 21:59:34;;;;;;;10.48;5.22;;;;;;;5.47;79.61;101344.13;10444866;28;20038;-82
2022/10/21 22:04:38;;;;;;;7.35;4.70;;;;;;;5.44;80.24;101341.88;10444929;28;20044;-83
2022/10/21 22:09:40;;;;;;;7.15;3.78;;;;;;;5.48;80.20;101332.16;10446459;28;20546;-83
2022/10/21 22:14:42;;;;;;;6.88;4.35;;;;;;;5.57;80.51;101333.53;10449473;28;20068;-84
2022/10/21 22:19:45;;;;;;;9.18;4.53;;;;;;;5.65;81.29;101330.47;10444912;28;20518;-84
2022/10/21 22:24:47;;;;;;;7.93;4.85;;;;;;;5.82;80.49;101332.53;10445743;28;20507;-83
2022/10/21 22:29:49;;;;;;;8.27;4.82;;;;;;;5.79;81.25;101327.53;10446856;28;20041;-83
2022/10/21 22:34:52;;;;;;;16.17;7.72;;;;;;;5.77;81.21;101326.94;10447296;28;20057;-81
2022/10/21 22:39:54;;;;;;;8.88;4.28;;;;;;;5.68;81.23;101326.44;10444979;28;20044;-82
2022/10/21 22:44:56;;;;;;;13.20;6.10;;;;;;;5.61;81.98;101321.09;10448655;28;20051;-80
2022/10/21 22:49:58;;;;;;;15.90;7.82;;;;;;;5.65;81.86;101316.84;10446368;28;20037;-82
2022/10/21 22:55:00;;;;;;;12.52;5.50;;;;;;;5.66;82.22;101312.22;10448007;28;20049;-81
2022/10/21 23:00:03;;;;;;;9.27;4.38;;;;;;;5.72;82.38;101312.13;10444783;28;20049;-82
2022/10/21 23:05:06;;;;;;;8.98;4.70;;;;;;;5.72;82.81;101303.13;10446044;28;20041;-80
2022/10/21 23:10:08;;;;;;;8.55;4.75;;;;;;;5.74;83.19;101296.41;10443926;28;20037;-80
2022/10/21 23:15:10;;;;;;;9.00;5.32;;;;;;;5.67;82.76;101306.53;10442270;28;20045;-81
2022/10/21 23:20:13;;;;;;;8.52;5.05;;;;;;;5.87;82.86;101308.13;10444268;28;20491;-80
2022/10/21 23:25:15;;;;;;;12.80;6.43;;;;;;;5.94;83.02;101307.00;10452208;28;20056;-80
2022/10/21 23:30:18;;;;;;;9.10;5.07;;;;;;;5.96;83.29;101304.88;10453490;28;20128;-81
2022/10/21 23:35:20;;;;;;;10.40;5.20;;;;;;;5.97;82.77;101306.53;10452408;28;20052;-79
2022/10/21 23:40:22;;;;;;;7.38;4.85;;;;;;;5.96;83.09;101299.44;10452817;28;20057;-80